Time;durP1;ratioP1;P1;durP2;ratioP2;P2;SDS_P1;SDS_P2;PMS_P1;PMS_P2;Temp;Humidity;BMP_temperature;BMP_pressure;BME280_temperature;BME280_humidity;BME280_pressure;Samples;Min_cycle;Max_cycle;Signal;HPM_P1;HPM_P2
2022/02/24 00:04:48;;;;;;;;;0.00;0.00;;;;;;;;2;261075607;261075607;-81
2022/02/24 00:14:16;;;;;;;;;0.00;0.00;;;;;;;;2;288083752;288083752;-81
2022/02/24 00:22:32;;;;;;;;;0.00;0.00;;;;;;;;2;261076529;261076529;-80
2022/02/24 00:31:59;;;;;;;;;0.00;0.00;;;;;;;;2;288083670;288083670;-79
2022/02/24 00:40:15;;;;;;;;;0.00;0.00;;;;;;;;2;261077859;261077859;-80
2022/02/24 00:49:42;;;;;;;;;0.00;0.00;;;;;;;;2;288086480;288086480;-80
2022/02/24 00:57:58;;;;;;;;;0.00;0.00;;;;;;;;2;261078147;261078147;-80
2022/02/24 01:07:25;;;;;;;;;0.00;0.00;;;;;;;;2;288089103;288089103;-80
2022/02/24 01:15:42;;;;;;;;;0.00;0.00;;;;;;;;2;261078190;261078190;-80
2022/02/24 01:25:09;;;;;;;;;0.00;0.00;;;;;;;;2;288083407;288083407;-80
2022/02/24 01:33:25;;;;;;;;;0.00;0.00;;;;;;;;2;261077475;261077475;-80
2022/02/24 01:42:52;;;;;;;;;0.00;0.00;;;;;;;;2;288087127;288087127;-80
2022/02/24 01:51:08;;;;;;;;;0.00;0.00;;;;;;;;2;261077214;261077214;-81
2022/02/24 02:00:37;;;;;;;;;0.00;0.00;;;;;;;;2;288084358;288084358;-81
2022/02/24 02:08:53;;;;;;;;;0.00;0.00;;;;;;;;2;261076395;261076395;-81
2022/02/24 02:18:20;;;;;;;;;0.00;0.00;;;;;;;;2;288086416;288086416;-80
2022/02/24 02:26:36;;;;;;;;;0.00;0.00;;;;;;;;2;261076093;261076093;-80
2022/02/24 02:36:04;;;;;;;;;0.00;0.00;;;;;;;;2;288085945;288085945;-79
2022/02/24 02:44:19;;;;;;;;;0.00;0.00;;;;;;;;2;261075855;261075855;-80
2022/02/24 02:53:47;;;;;;;;;0.00;0.00;;;;;;;;2;288085767;288085767;-81
2022/02/24 03:02:03;;;;;;;;;0.00;0.00;;;;;;;;2;261078217;261078217;-81
2022/02/24 03:11:30;;;;;;;;;0.00;0.00;;;;;;;;2;288085550;288085550;-81
2022/02/24 03:19:46;;;;;;;;;0.00;0.00;;;;;;;;2;261077617;261077617;-81
2022/02/24 03:29:13;;;;;;;;;0.00;0.00;;;;;;;;2;288085680;288085680;-81
2022/02/24 03:37:29;;;;;;;;;0.00;0.00;;;;;;;;2;261075912;261075912;-81
2022/02/24 03:46:56;;;;;;;;;0.00;0.00;;;;;;;;2;288086555;288086555;-81
2022/02/24 03:55:12;;;;;;;;;0.00;0.00;;;;;;;;2;261075587;261075587;-81
2022/02/24 04:04:41;;;;;;;;;0.00;0.00;;;;;;;;2;288083575;288083575;-80
2022/02/24 04:12:57;;;;;;;;;0.00;0.00;;;;;;;;2;261078514;261078514;-80
2022/02/24 04:22:24;;;;;;;;;0.00;0.00;;;;;;;;2;288082274;288082274;-80
2022/02/24 04:30:40;;;;;;;;;0.00;0.00;;;;;;;;2;261078069;261078069;-80
2022/02/24 04:40:08;;;;;;;;;0.00;0.00;;;;;;;;2;288086171;288086171;-80
2022/02/24 04:48:23;;;;;;;;;0.00;0.00;;;;;;;;2;261079314;261079314;-81
2022/02/24 04:57:51;;;;;;;;;0.00;0.00;;;;;;;;2;288084996;288084996;-80
2022/02/24 05:06:06;;;;;;;;;0.00;0.00;;;;;;;;2;261078701;261078701;-79
2022/02/24 05:15:34;;;;;;;;;0.00;0.00;;;;;;;;2;288083168;288083168;-79
2022/02/24 05:23:51;;;;;;;;;0.00;0.00;;;;;;;;2;261077198;261077198;-79
2022/02/24 05:33:18;;;;;;;;;0.00;0.00;;;;;;;;2;288084755;288084755;-80
2022/02/24 05:41:34;;;;;;;;;0.00;0.00;;;;;;;;2;261075354;261075354;-79
2022/02/24 05:51:01;;;;;;;;;0.00;0.00;;;;;;;;2;288085899;288085899;-79
2022/02/24 05:59:16;;;;;;;;;0.00;0.00;;;;;;;;2;261076666;261076666;-79
2022/02/24 06:08:44;;;;;;;;;0.00;0.00;;;;;;;;2;288087825;288087825;-79
2022/02/24 06:17:00;;;;;;;;;0.00;0.00;;;;;;;;2;261075868;261075868;-79
2022/02/24 06:26:27;;;;;;;;;0.00;0.00;;;;;;;;2;288086352;288086352;-79
2022/02/24 06:34:43;;;;;;;;;0.00;0.00;;;;;;;;2;261078822;261078822;-77
2022/02/24 06:44:11;;;;;;;;;0.00;0.00;;;;;;;;2;288084533;288084533;-77
2022/02/24 06:52:26;;;;;;;;;0.00;0.00;;;;;;;;2;261077551;261077551;-75
2022/02/24 07:01:54;;;;;;;;;0.00;0.00;;;;;;;;2;288088477;288088477;-76
2022/02/24 07:10:12;;;;;;;;;0.00;0.00;;;;;;;;2;261079235;261079235;-79
2022/02/24 07:19:39;;;;;;;;;0.00;0.00;;;;;;;;2;288085444;288085444;-79
2022/02/24 07:27:55;;;;;;;;;0.00;0.00;;;;;;;;2;261078070;261078070;-79
2022/02/24 07:37:22;;;;;;;;;0.00;0.00;;;;;;;;2;288082961;288082961;-76
2022/02/24 07:45:38;;;;;;;;;0.00;0.00;;;;;;;;2;261075909;261075909;-76
2022/02/24 07:55:07;;;;;;;;;0.00;0.00;;;;;;;;2;288085033;288085033;-76
2022/02/24 08:03:22;;;;;;;;;0.00;0.00;;;;;;;;2;261076957;261076957;-76
2022/02/24 08:12:50;;;;;;;;;0.00;0.00;;;;;;;;2;288086909;288086909;-76
2022/02/24 08:21:05;;;;;;;;;0.00;0.00;;;;;;;;2;261074410;261074410;-76
2022/02/24 08:30:33;;;;;;;;;0.00;0.00;;;;;;;;2;288086241;288086241;-76
2022/02/24 08:38:48;;;;;;;;;0.00;0.00;;;;;;;;2;261076408;261076408;-77
2022/02/24 08:48:16;;;;;;;;;0.00;0.00;;;;;;;;2;288087699;288087699;-76
2022/02/24 08:56:31;;;;;;;;;0.00;0.00;;;;;;;;2;261076767;261076767;-76
2022/02/24 09:05:59;;;;;;;;;0.00;0.00;;;;;;;;2;288083021;288083021;-76
2022/02/24 09:14:14;;;;;;;;;0.00;0.00;;;;;;;;2;261077602;261077602;-77
2022/02/24 09:23:42;;;;;;;;;0.00;0.00;;;;;;;;2;288084275;288084275;-76
2022/02/24 09:31:57;;;;;;;;;0.00;0.00;;;;;;;;2;261077086;261077086;-76
2022/02/24 09:41:25;;;;;;;;;0.00;0.00;;;;;;;;2;288083338;288083338;-77
2022/02/24 09:49:41;;;;;;;;;0.00;0.00;;;;;;;;2;261076403;261076403;-77
2022/02/24 09:59:08;;;;;;;;;0.00;0.00;;;;;;;;2;288084904;288084904;-76
2022/02/24 10:07:24;;;;;;;;;0.00;0.00;;;;;;;;2;261072649;261072649;-77
2022/02/24 10:16:59;;;;;;;;;0.00;0.00;;;;;;;;2;288083587;288083587;-77
2022/02/24 10:25:17;;;;;;;;;0.00;0.00;;;;;;;;2;261078981;261078981;-76
2022/02/24 10:34:45;;;;;;;;;0.00;0.00;;;;;;;;2;288082362;288082362;-77
2022/02/24 10:43:14;;;;;;;;;0.00;0.00;;;;;;;;2;261077242;261077242;-78
2022/02/24 10:52:42;;;;;;;;;0.00;0.00;;;;;;;;2;288083863;288083863;-78
2022/02/24 11:01:14;;;;;;;;;0.00;0.00;;;;;;;;2;261077357;261077357;-78
2022/02/24 11:10:41;;;;;;;;;0.00;0.00;;;;;;;;2;288086065;288086065;-77
2022/02/24 11:18:57;;;;;;;;;0.00;0.00;;;;;;;;2;261078639;261078639;-77
2022/02/24 11:28:27;;;;;;;;;0.00;0.00;;;;;;;;2;288087011;288087011;-77
2022/02/24 11:36:46;;;;;;;;;0.00;0.00;;;;;;;;2;261076705;261076705;-77
2022/02/24 11:46:13;;;;;;;;;0.00;0.00;;;;;;;;2;288084253;288084253;-77
2022/02/24 11:54:38;;;;;;;;;0.00;0.00;;;;;;;;2;261075989;261075989;-77
2022/02/24 12:04:18;;;;;;;;;0.00;0.00;;;;;;;;2;288083121;288083121;-77
2022/02/24 12:12:33;;;;;;;;;0.00;0.00;;;;;;;;2;261080083;261080083;-77
2022/02/24 12:22:13;;;;;;;;;0.00;0.00;;;;;;;;2;288083232;288083232;-79
2022/02/24 12:30:30;;;;;;;;;0.00;0.00;;;;;;;;2;261076030;261076030;-77
2022/02/24 12:39:59;;;;;;;;;0.00;0.00;;;;;;;;2;288083506;288083506;-78
2022/02/24 12:48:15;;;;;;;;;0.00;0.00;;;;;;;;2;261075113;261075113;-78
2022/02/24 12:57:43;;;;;;;;;0.00;0.00;;;;;;;;2;288082008;288082008;-78
2022/02/24 13:06:00;;;;;;;;;0.00;0.00;;;;;;;;2;261077285;261077285;-77
2022/02/24 13:15:32;;;;;;;;;0.00;0.00;;;;;;;;2;288086372;288086372;-78
2022/02/24 13:23:54;;;;;;;;;0.00;0.00;;;;;;;;2;261079126;261079126;-77
2022/02/24 13:33:27;;;;;;;;;0.00;0.00;;;;;;;;2;288085007;288085007;-78
2022/02/24 13:41:49;;;;;;;;;0.00;0.00;;;;;;;;2;261077466;261077466;-82
2022/02/24 13:51:18;;;;;;;;;0.00;0.00;;;;;;;;2;288082609;288082609;-79
2022/02/24 13:59:33;;;;;;;;;0.00;0.00;;;;;;;;2;261078669;261078669;-79
2022/02/24 14:09:01;;;;;;;;;0.00;0.00;;;;;;;;2;288085250;288085250;-78
2022/02/24 14:17:17;;;;;;;;;0.00;0.00;;;;;;;;2;261076825;261076825;-77
2022/02/24 14:26:44;;;;;;;;;0.00;0.00;;;;;;;;2;288084249;288084249;-77
2022/02/24 14:35:00;;;;;;;;;0.00;0.00;;;;;;;;2;261081243;261081243;-77
2022/02/24 14:44:27;;;;;;;;;0.00;0.00;;;;;;;;2;288081713;288081713;-78
2022/02/24 14:52:43;;;;;;;;;0.00;0.00;;;;;;;;2;261075509;261075509;-77
2022/02/24 15:02:11;;;;;;;;;0.00;0.00;;;;;;;;2;288082188;288082188;-76
2022/02/24 15:10:27;;;;;;;;;0.00;0.00;;;;;;;;2;261078255;261078255;-76
2022/02/24 15:19:55;;;;;;;;;0.00;0.00;;;;;;;;2;288080377;288080377;-75
2022/02/24 15:28:10;;;;;;;;;0.00;0.00;;;;;;;;2;261076211;261076211;-76
2022/02/24 15:37:38;;;;;;;;;0.00;0.00;;;;;;;;2;288085237;288085237;-76
2022/02/24 15:45:54;;;;;;;;;0.00;0.00;;;;;;;;2;261076723;261076723;-75
2022/02/24 15:55:21;;;;;;;;;0.00;0.00;;;;;;;;2;288085235;288085235;-76
2022/02/24 16:03:37;;;;;;;;;0.00;0.00;;;;;;;;2;261076908;261076908;-76
2022/02/24 16:13:04;;;;;;;;;0.00;0.00;;;;;;;;2;288084880;288084880;-76
2022/02/24 16:21:20;;;;;;;;;0.00;0.00;;;;;;;;2;261077156;261077156;-76
2022/02/24 16:30:48;;;;;;;;;0.00;0.00;;;;;;;;2;288086253;288086253;-76
2022/02/24 16:42:23;;;;;;;;;0.00;0.00;;;;;;;;2;261078147;261078147;-76
2022/02/24 16:51:51;;;;;;;;;0.00;0.00;;;;;;;;2;288084743;288084743;-76
2022/02/24 17:00:07;;;;;;;;;0.00;0.00;;;;;;;;2;261076811;261076811;-76
2022/02/24 17:09:35;;;;;;;;;0.00;0.00;;;;;;;;2;288086882;288086882;-76
2022/02/24 17:17:51;;;;;;;;;0.00;0.00;;;;;;;;2;261076668;261076668;-76
2022/02/24 17:27:19;;;;;;;;;0.00;0.00;;;;;;;;2;288084970;288084970;-76
2022/02/24 17:35:36;;;;;;;;;0.00;0.00;;;;;;;;2;261074573;261074573;-77
2022/02/24 17:45:04;;;;;;;;;0.00;0.00;;;;;;;;2;288084187;288084187;-76
2022/02/24 17:53:19;;;;;;;;;0.00;0.00;;;;;;;;2;261077050;261077050;-76
2022/02/24 18:02:47;;;;;;;;;0.00;0.00;;;;;;;;2;288086534;288086534;-76
2022/02/24 18:11:03;;;;;;;;;0.00;0.00;;;;;;;;2;261079691;261079691;-77
2022/02/24 18:20:30;;;;;;;;;0.00;0.00;;;;;;;;2;288088023;288088023;-77
2022/02/24 18:28:46;;;;;;;;;0.00;0.00;;;;;;;;2;261078723;261078723;-75
2022/02/24 18:38:14;;;;;;;;;0.00;0.00;;;;;;;;2;288086361;288086361;-80
2022/02/24 18:46:31;;;;;;;;;0.00;0.00;;;;;;;;2;261080901;261080901;-81
2022/02/24 18:55:59;;;;;;;;;0.00;0.00;;;;;;;;2;288084606;288084606;-81
2022/02/24 19:04:15;;;;;;;;;0.00;0.00;;;;;;;;2;261079034;261079034;-79
2022/02/24 19:13:43;;;;;;;;;0.00;0.00;;;;;;;;2;288085666;288085666;-81
2022/02/24 19:21:58;;;;;;;;;0.00;0.00;;;;;;;;2;261079945;261079945;-80
2022/02/24 19:31:26;;;;;;;;;0.00;0.00;;;;;;;;2;288084984;288084984;-81
2022/02/24 19:39:42;;;;;;;;;0.00;0.00;;;;;;;;2;261078887;261078887;-81
2022/02/24 19:49:09;;;;;;;;;0.00;0.00;;;;;;;;2;288085555;288085555;-80
2022/02/24 19:57:25;;;;;;;;;0.00;0.00;;;;;;;;2;261079822;261079822;-82
2022/02/24 20:06:52;;;;;;;;;0.00;0.00;;;;;;;;2;288084866;288084866;-82
2022/02/24 20:15:08;;;;;;;;;0.00;0.00;;;;;;;;2;261076813;261076813;-83
2022/02/24 20:24:36;;;;;;;;;0.00;0.00;;;;;;;;2;288088352;288088352;-83
2022/02/24 20:32:53;;;;;;;;;0.00;0.00;;;;;;;;2;261078963;261078963;-83
2022/02/24 20:42:21;;;;;;;;;0.00;0.00;;;;;;;;2;288087807;288087807;-83
2022/02/24 20:50:37;;;;;;;;;0.00;0.00;;;;;;;;2;261077587;261077587;-83
2022/02/24 21:00:06;;;;;;;;;0.00;0.00;;;;;;;;2;288085429;288085429;-83
2022/02/24 21:08:21;;;;;;;;;0.00;0.00;;;;;;;;2;261075495;261075495;-82
2022/02/24 21:17:49;;;;;;;;;0.00;0.00;;;;;;;;2;288088073;288088073;-77
2022/02/24 21:26:04;;;;;;;;;0.00;0.00;;;;;;;;2;261077830;261077830;-77
2022/02/24 21:35:32;;;;;;;;;0.00;0.00;;;;;;;;2;288085558;288085558;-76
2022/02/24 21:43:47;;;;;;;;;0.00;0.00;;;;;;;;2;261081227;261081227;-76
2022/02/24 21:53:15;;;;;;;;;0.00;0.00;;;;;;;;2;288086767;288086767;-76
2022/02/24 22:01:30;;;;;;;;;0.00;0.00;;;;;;;;2;261076013;261076013;-76
2022/02/24 22:10:58;;;;;;;;;0.00;0.00;;;;;;;;2;288083513;288083513;-76
2022/02/24 22:19:13;;;;;;;;;0.00;0.00;;;;;;;;2;261078031;261078031;-76
2022/02/24 22:28:41;;;;;;;;;0.00;0.00;;;;;;;;2;288083844;288083844;-75
2022/02/24 22:36:56;;;;;;;;;0.00;0.00;;;;;;;;2;261080126;261080126;-76
2022/02/24 22:46:24;;;;;;;;;0.00;0.00;;;;;;;;2;288087484;288087484;-76
2022/02/24 22:54:39;;;;;;;;;0.00;0.00;;;;;;;;2;261077933;261077933;-77
2022/02/24 23:12:41;;;;;;;;;0.00;0.00;;;;;;;;2;261076833;261076833;-76
2022/02/24 23:22:09;;;;;;;;;0.00;0.00;;;;;;;;2;288087603;288087603;-76
2022/02/24 23:30:24;;;;;;;;;0.00;0.00;;;;;;;;2;261076557;261076557;-78
2022/02/24 23:39:52;;;;;;;;;0.00;0.00;;;;;;;;2;288087006;288087006;-81
2022/02/24 23:48:07;;;;;;;;;0.00;0.00;;;;;;;;2;261079800;261079800;-83
2022/02/24 23:57:35;;;;;;;;;0.00;0.00;;;;;;;;2;288085833;288085833;-81
